Espace membre
Imprimable
Challenges > Delhalle - Chimay, 20/04/2019, BEL - Jogging de la Principauté
Liste des rapports > Delhalle - 14.3 km - Classement
Recherche: Page: [1]
191 Entrées
 
Les réclamations ne sont plus acceptées, les résultats sont considérés comme définitifs.
RangNrNomAgeIOCLigueEquipeRéelTempsTkmMoy.ScrPtsLocalité
1.4VANDERBECK YVES51BELRIWARONVAU54:5154:513:51 15.644MALONNE
2.268CAVYN JEAN-PHILIPPE51BELTOUS A BORD1:01:131:01:134:17 14.0219HALLE
3.6554RENARD YVES53BELPESCHES1:01:581:01:584:20 13.8523PESCHES-COUVIN
4.825PACQUET DOMINIQUE54BELJOGGPLUS1:03:181:03:184:26 13.5626MERBES-SAINTE-MARIE
5.6417DILIBERTO ANTONINO52BEL1:03:331:03:334:27 13.5029CRISNEE
6.6404KEDZIORA LAURENT52FRAUSVA1:04:491:04:494:32 13.2438JENLAIN
7.677PAULUS PHILIPPE58BELESM1:06:041:06:044:38 12.9948MONT-SUR-MARCHIENNE
8.6488RENARD LUCHO55BELSHARCKS TRIATHLON1:06:101:06:104:38 12.9749PESCHES
9.294HASSOUTE EL MOUSTAFA53BELCSFMYSTERE1:06:351:06:354:40 12.8951FOREST
10.583VAN RAEMDONCK GILLES53BELRIWARIWA1:06:471:06:474:41 12.8555LASNE
11.6542HUYGHE VINCENT56BELTEAM VERTIGO1:06:541:06:544:41 12.8356JEMAPPES
12.495DAMBOIS THIERRY50BELUAC1:06:561:06:564:41 12.8257REVES
13.983CULLOP PAUL58BELENJAMBEE1:06:571:06:574:41 12.8258BRUXELLES
14.106LORGE JEAN MARC53BELRONVAU1:07:061:07:064:42 12.7961EGHEZEE
15.425DE GRAVE OLIVIER54BELCSFMYSTERE1:07:361:07:364:44 12.6964UCCLE
16.942SERGYSELS PASCAL51BELJOGGANS1:09:161:09:164:51 12.3978BRUXELLES
17.6741GUERRIER FRANCK51BEL1:09:191:09:194:51 12.3879
18.122SCHALKWIJK BENOIT59BELFLEUTRAVEL2RUN1:09:551:09:554:54 12.2787WANFERCEE BAULET
19.6738RAVYTS ALAIN56BEL1:10:441:10:444:57 12.1396
20.6494HUAUX ALAIN54BEL1:10:581:10:584:58 12.0999SILENRIEUX
21.58HENRY ANDRE59BELRCB1:11:051:11:054:59 12.07102LA HULPE
22.6791COFFIER CHRISTOPHE53FRA1:11:151:11:154:59 12.04103
23.841SALVATO DOMENICO56ITACSFMYSTERE1:11:301:11:305:00 12.00108BRUXELLES
24.264SCAILLET VINCENT50BELHASTRAIL SINGLETRACK1:12:041:12:045:03 11.91114WEILLEN
25.6218POTTIEZ PHILIPPE55BELVERTIGO1:12:391:12:395:05 11.81127MONS
26.799POLET ALAIN56BELSMAC1:12:491:12:495:06 11.79128NAMUR
27.6419DARGE OLIVIER50BEL1:13:301:13:305:09 11.68133LIMAL
28.6543HEULERS THIERRY52BEL1:13:371:13:375:09 11.66134PEISSANT
29.236DUYCK XAVIER52BEL1:13:531:13:535:10 11.61138SPY
30.436FERNANDEZ-VERA ANTONIO53BELUACROUTIERS1:13:541:13:545:11 11.61139FARCIENNES
31.658DECAMPS ERIC52BELESM19671:14:101:14:105:12 11.57143GOZÉE
32.342LOMBART FRÉDÉRIC52BELGAG1:14:131:14:135:12 11.56145SAUVENIÈRE
33.821JUDEX JEAN-MICHEL56BELRCNAMUR1:14:171:14:175:12 11.55146NAMUR
34.321ORVAL ALAIN50BEL1:14:261:14:265:13 11.53149CINEY
35.364WOUTERS LUC53BELJOKA1:14:441:14:445:14 11.48157WESPELAAR
36.225JOUAN BERNARD54BEL1:14:501:14:505:14 11.47160THYNES
37.693CHAUVIER JEAN-PIERRE59BEL1:15:001:15:005:15 11.44165GENVAL
38.6190PRISETTE JEAN MICHEL55FRA1:15:121:15:125:16 11.41169FOURMIES
39.6719NICOLAS JEAN-JACQUES53BEL1:15:231:15:235:17 11.38171
40.1525MORAUX SAMUEL52BELU.S.PESCHE1:15:341:15:345:18 11.361765660 - COUVIN
41.1618LEJEUNE ALAIN51BELJACO1:15:351:15:355:18 11.35177MACQUENOISE
42.6764LESOIL PHILIPPE52BELENJAMBEE1:15:431:15:435:18 11.33179BRUXELLES
43.6583CORDEWENER ALAIN59BELAC FRONTIÈRES1:16:001:16:005:19 11.29183X
44.6826DEGEZELLE STEPHANE58BEL1:16:081:16:085:20 11.27185
45.558D'ANGELO AMERINO57ITAZATAC CHARLEROI1:16:321:16:325:22 11.21189FARCIENNES
46.77MEZIANI MOHAND52BELCSFMYSTERE1:16:511:16:515:23 11.17191SAINT-GILLES
47.6698DEBLANDER BRUNO59BEL1:16:591:16:595:23 11.15193
48.374COLLARD ETIENNE51BELARCH1:17:161:17:165:25 11.11194LESVE
49.6208LEWILLION PHILIPPE53BELVERTIGO1:17:201:17:205:25 11.10196JURBISE
50.6820DETRE PASCAL57BELCABWPHILIPPEVILLE1:17:291:17:295:26 11.08198
51.767HOUDMONT ARNAUD52BEL1:17:391:17:395:26 11.05199MONT-SAINT-GUIBERT
52.1055CORDEWENER LAURENT50BELAC FRONTIÈRES1:17:421:17:425:26 11.04202X
53.685LETELLIER JEAN LUC54BELMYSTERE1:17:521:17:525:27 11.02205LIMELETTE
54.884SESTITO JOSEPH53ITAUAC1:17:531:17:535:27 11.02206MARCINELLE
55.32JACQUEMIN PATRICK54BEL1:17:581:17:585:28 11.01209MOXHE
56.6506BERTRAND BRUNO53BEL1:18:251:18:255:30 10.94213RANCE
57.6187BUSIN JEAN PIERRE52FRACAFCA FOURMIES1:18:521:18:525:31 10.88218WIGNEHIES
58.1079GUIOT FABRICE50BEL1:19:241:19:245:34 10.81224RANCE
59.6481COCU MANU51BELVERTIGO1:20:471:20:475:39 10.62241OBOURG
60.6197FRAHTIA MADANI53BELACCOACCO1:21:141:21:145:41 10.56247PETIGNY
61.6210MINNE ETIENNE52BELVERTIGO1:21:441:21:445:43 10.50259SAINT-SYMPHORIEN
62.212GALAIS JEAN-MICHEL53BEL1:21:461:21:465:44 10.49262BRUXELLES
63.1085OSTYN PHILIPPE53BELJACOJACO1:22:081:22:085:45 10.45268FORGES
64.1204CORDEWENER PATRICE55BELAC FRONTIÈRES1:22:211:22:215:46 10.42270X
65.6420ROBINET FRANCK53FRACMT1:22:261:22:265:46 10.41272CHARLEVILLE-MÉZIÈRES
66.6238CARLIER LUC56BELRT BRACQUEGNIES1:22:291:22:295:47 10.402747100
67.6206DELEU PATRICK58BEL1:22:501:22:505:48 10.362837060
68.6819RICHARD YVES50BELFACFAC1:23:141:23:145:50 10.31291
69.1036DE PESTEL HERVÉ57BEL1:23:161:23:165:50 10.30292VAULX L CHIMAY
70.216LANCKRIET ALEX54BELESM1:23:301:23:305:51 10.28296GOUY-LEZ-PIÉTON
71.431MARTIN ERIC56BEL1:23:351:23:355:51 10.27299WANDRE LIEGE
72.1061TENGROOTENHUYSE OLIVIER52BELTTB1:24:021:24:025:53 10.21305RHODE-SAINT-GENÈSE
73.1622RUSSOTTO VINCENZO51BELKINESPORT1:24:231:24:235:55 10.17310COUVIN
74.408GLEVICZKY ANDRÉ57BELTITAN NIVELLES1:24:561:24:565:57 10.10316LA LOUVIÈRE
75.1041ROVILLARD STÉPHANE51BEL1:25:031:25:035:57 10.09317GOZÉE
76.6501FERNANDES JOAQUIM57FRAMMM1:25:201:25:205:59 10.06323WATTRELOS
77.1004JAUQUET DANIEL54BELJCHSH1:25:321:25:325:59 10.03331JAMIOULX
78.6748PAYEN NICOLAS54FRA1:26:111:26:116:02 9.96344
79.6195BERTAUX PASCAL59FRACAFCA FOURMIES1:26:111:26:116:02 9.96345WIGNEHIES
80.848DEVIERE MICHEL56BELFORESTIERE1:26:331:26:336:04 9.91357MONS
81.1509DAUCHOT MICHEL53BEL1:26:351:26:356:04 9.91359MASNUY-SAINT-JEAN
82.6205DELWART ROLAND58BELVERTIGO1:26:451:26:456:04 9.89364LENS
83.507MARLOYE LUC55BELJE COURS A INCOURT1:26:501:26:506:05 9.88366OPPREBAIS
84.375MATHIEU JEAN-POL57BELTREK & TRAIL BERTRIX1:26:511:26:516:05 9.88367RIENNE
85.449MARCHAL PATRICK58BELGAG1:27:071:27:076:06 9.85375GEMBLOUX
86.1000SCHARPÉ CHARLES53BELJE COURS A INCOURT1:27:091:27:096:06 9.85376DONGELBERG
87.6788LESCEUX JOSÉ50BEL1:27:131:27:136:06 9.84377CHIMAY
88.6469LERNOUX ETIENNE54BELRUNNING GREZ1:27:161:27:166:07 9.83378LONGUEVILLE
89.6518BALLANT DENIS56BELAXA TEAM1:27:191:27:196:07 9.83380BRUXELLES
90.56PIERRE STÉPHANE53BEL1:27:561:27:566:09 9.76391RAMILLIES
91.939BERNARD LOUIS51BELCABWNAC1:28:241:28:246:11 9.71394NIVELLES
92.1559GUILLAUME YVES53BELJTRR1:28:371:28:376:12 9.68402X
93.6498BIARD ERIC55BEL1:28:391:28:396:12 9.68405FORGES
94.6189LEJEUNE PHILIPPE53BELJACO1:28:401:28:406:13 9.68406X
95.6192DUPIN ALAIN53BEL1:28:461:28:466:13 9.67410SARS LA BUISSIERE
96.623PISCART PIERRE59BELMOHAFORESTIERE1:28:461:28:466:13 9.67411OBOURG
97.526NORMAND DANIEL58BELJCCS1:28:511:28:516:13 9.66414RIENNE
98.738WILLEMS LUC58BEL1:28:571:28:576:14 9.65415SAINT-MARTIN
99.812BATISTIC PATRICK55BELRONVAU1:28:581:28:586:14 9.64417NALINNES
100.992LETHÉ VINCENT59BELRONVAU1:28:591:28:596:14 9.64418TOURINNES-SAINT-LAMBERT
101.6185ALBERT MICHEL58BELUSBWUSBW1:29:051:29:056:14 9.63419NAMECHE
102.6470KING RICHARD51GBRRUNNIN'GREZ1:29:271:29:276:16 9.59427GREZ-DOICEAU
103.7138DENAYER VINCENT55BELFLEULA THURE1:29:351:29:356:16 9.58429FONTAINE-L'EVEQUE
104.924GENICOT PASCAL57BELHACRUNNING TEAM CONDROZ1:29:561:29:566:18 9.54435HERON
105.6724DESCAMPS XAVIER53BEL1:30:151:30:156:19 9.51437
106.6418VIRGILIO GIOVANNI54ITA1:30:301:30:306:20 9.48442LONCIN
107.1510MARCHAL LUC55BEL1:31:111:31:116:23 9.41455AUBLAIN
108.6223SPAGNUOLO ANGELO58BELJC BAUDOUR1:31:361:31:366:25 9.37463SPIENNES
109.672JACQUEMART SERGE54BELJCPMF FLV1:32:201:32:206:28 9.29471SART-SAINT-LAURENT
110.6162ANGOT PASCAL50FRAASAFA1:33:211:33:216:32 9.19482COUSOLRE
111.476MARIS WIM51BELJOGGANS1:33:521:33:526:34 9.14493GANSHOREN
112.513DUFAUX RAPHAEL52BELJCPMF FLV1:33:591:33:596:35 9.13495FLOREFFE
113.708MOUYART PHILIPPE52BEL1:34:151:34:156:36 9.10502THY-LE-CHÂTEAU
114.127GRANDMONT ANDRE58BELARCHARCH1:34:281:34:286:37 9.08505DINANT
115.1075GUERIN GONTRAN50BEL1:34:511:34:516:38 9.05510LANDELIES
116.6451NOSSAINT PHILIPPE59BEL19601:35:201:35:206:40 9.005205300 ANDENNE
117.398NENNEN ARNAUD56BELSMAC1:35:261:35:266:41 8.99523GELBRESSEE
118.1201SOUPART PAUL53BELRUN'HEURE CERFONTAIN1:35:481:35:486:42 8.96528CERFONTAINE
119.1547VERMEIREN ERIK59BELJACO1:36:001:36:006:43 8.94533GÉRONSART
120.6164LIBION MARC51BEL1:36:121:36:126:44 8.92536FLAWINNE
121.1062GRAYE JACQUES52BEL1:36:271:36:276:45 8.90541RIXENSART
122.1631PONLOT JEAN-JACQUES57BEL1:36:281:36:286:45 8.89542BELLEFONTAINE
123.931CIARMOLI GIUSEPPE57BELJAMES1:36:571:36:576:47 8.85548LE ROEULX
124.6480MALVAËS STÉPHANE54FRAVERTIGO1:37:111:37:116:48 8.83552JURBISE
125.6517FLAMENT PHILIPPE54BELTOTAL1:37:231:37:236:49 8.81553HORNU
126.6534FAMERÉE PIERRE55BEL1:37:551:37:556:51 8.76565MONTIGNY LE TILLEUL
127.6467DUJARDIN PASCAL56BEL1:38:311:38:316:54 8.71575MONS
128.6186DEPRINCE VINCENT51BELVERTIG1:38:311:38:316:54 8.71576MASNUY-SAINT-JEAN
129.430DUMONT ALAIN59BELRCNAMUR1:38:451:38:456:55 8.69578JAMBES
130.1008RENOTTE JEAN-CHRISTOPHE54BEL1:39:041:39:046:56 8.66581GOUY-LEZ-PIÉTON
131.1019DELCINE ALAIN56BEL1:39:081:39:086:56 8.66583FORGES
132.1915MATHIEU JACQUES52BELRUN’HEURE1:39:211:39:216:57 8.64585VILLERS 2 ÉGLISES
133.463DEMIN MICHEL51BELTEAM MARCEL1:39:351:39:356:58 8.62591SOVET
134.493MOISE PATRICK59BELRCNAMUR1:39:531:39:537:00 8.59597JAMBES
135.6179NEYMAN PASCAL51BEL1:40:221:40:227:02 8.55601SAINT-GÉRARD
136.6710ANCART JEAN LUC59BELL TH1:40:561:40:567:04 8.50607
137.6758CUYPERS DANY56BELMSF AZG1:40:571:40:577:04 8.50608LOBBES
138.1624LAURENT BRUNO57BEL1:40:581:40:587:04 8.506091367
139.1336STREPENNE LAURENT57BEL1:41:241:41:247:06 8.466135000
140.6445SMETS PHILIPPE54BELPHILCA1:41:521:41:527:08 8.42623WANFERCÉE-BAULET
141.6236HOTAT MICHEL50BEL1:42:191:42:197:10 8.39630VILLERS-LA-VILLE
142.590BALSAT PHILIPPE56BELBJB1:42:381:42:387:11 8.36637LA LOUVIERE
143.6717MAGNET BERNARD53BEL1:42:541:42:547:12 8.34645
144.6567DIDION THIERRY50BEL1:43:021:43:027:13 8.33647PHILIPPEVILLE JAMIOLLE
145.208BOUTEFEU JACQUES59BELESMRRTCHATELET1:44:061:44:067:17 8.24663FARCIENNES
146.6421JANSSENS ROLAND59BELTORTUES MESLINOISES1:44:171:44:177:18 8.23665LENS
147.6497PENSEZ PIERRE56BEL1:44:291:44:297:19 8.21667MONS
148.1025BENNER PASCAL52BEL1:44:381:44:387:19 8.20668NAMUR
149.258PINON WILLIAM58BELENJAMBEE1:45:041:45:047:21 8.17672KRAAINEM
150.1034GLOESENER DANIEL58BELENJAMBEE1:45:041:45:047:21 8.17673IXELLES
151.355DE POTTER BENOIT59BELCSDYSPTWAVRE1:45:141:45:147:22 8.15674GISTOUX
152.1562MARTIN DENIS59BEL1:45:361:45:367:24 8.13679VIROINVAL
153.6834REMACLE JEAN-POL56BELEQUIPE SAMARTOISE1:45:361:45:367:24 8.13680SAMART
154.7174TANGHE PATRICK57BELVERTIGO1:45:371:45:377:24 8.12681ERBISOEUL
155.1492DERESE MARC52BEL1:45:471:45:477:24 8.11682COUILLET
156.656MABILLE JOEL52BELJC HSH1:45:491:45:497:24 8.11683HAM SUR HEURE
157.6690PAULUS BERNARD53BELESM1:46:051:46:057:26 8.09686MONT-SUR-MARCHIENNE
158.6163DE REYS FREDERIC55BEL1:47:271:47:277:31 7.99701UCCLE
159.6777BAUDUIN DIDIER52BEL1:48:001:48:007:34 7.94707UCCLE
160.1535GRAVIS JOËL59BEL1:48:221:48:227:35 7.92710HAVRE
161.6515RAINERI JEAN-LOUIS52BELSPTW1:48:241:48:247:35 7.927111300
162.1563LAMOCK ALAIN59BEL1:48:401:48:407:36 7.90713LANEFFE
163.6430PANS CHRISTOPHE52BEL1:49:021:49:027:38 7.87721CHAUMONT-GISTOUX
164.470CRUSNAIRE MARC57BELRONVAU1:49:171:49:177:39 7.85723OTTIGNIES
165.1904SALAH MOHAMED56FRACH'TISCH'TIS MARATHONIENS1:49:301:49:307:40 7.84726HERIN
166.458WOUTERS WILLIAM51BEL1:50:241:50:247:44 7.77737PERWEZ
167.192GEUSKENS JEAN-MARC55BEL1:50:281:50:287:44 7.77740BRUXELLES
168.1076TAVIER PASCAL57BEL1:50:301:50:307:44 7.77741THIMEON
169.6688ERRICO MICHEL53BEL1:50:391:50:397:45 7.75743ERQUELINNES
170.1532BERNARD HERVÉ51BEL1:51:341:51:347:49 7.69756ERPENT
171.6769CSIK PASCAL57BEL1:51:551:51:557:50 7.67760MARCINELLE
172.6849FLEURY FRANCIS59FRA1:52:251:52:257:52 7.63763
173.846POELMANS DOMINIQUE58BELRCNAMUR1:54:091:54:097:59 7.52782EVREHAILLES
174.972STIENSMA ERIC59BELWPRC1:54:221:54:228:00 7.50785BRUXELLES
175.1032GILLES PASCAL53BELJTRR1:55:061:55:068:03 7.46790X
176.6807MELE ELIO53BEL1:58:451:58:458:19 7.23808
177.6432GEGO ERIC56BEL1:59:271:59:278:22 7.18820RENLIES
178.8ANTOINE ALAIN58BELRCNAMUR2:00:002:00:008:24 7.15823TEMPLOUX
179.1522SCHMIT PIERRE56BEL#ONESECUREX2:00:072:00:078:24 7.14825RIXENSART
180.1494SCOURFIELD THIERRY57FRACOURIR À OBIES2:03:532:03:538:40 6.93846OBIES
181.1620ALEXANDRE PASCAL59BELJC THIMÉON2:04:232:04:238:42 6.90847THIMÉON
182.1906OUAGUENI MOULOUD52FRACH'TISCH'TIS MARATHONIENS2:04:572:04:578:45 6.87851WALLERS
183.333MARTENS ERIC55BEL2:06:572:06:578:53 6.76863CLAVIER
184.730FRANKARD LUC51BELJC HSH2:10:092:10:099:07 6.59875MONT-SUR-MARCHIENNE
185.6847PAINCHART ALAIN50FRACOURIR À OBIES2:10:112:10:119:07 6.59877AUDIGNIES
186.6411VALETTE DENIS53FRA2:10:122:10:129:07 6.59880OBIES
187.356SAUCIN LUC58BELRRTCHATELET2:12:322:12:329:17 6.47887CHÂTELET
188.6693DURENNE ERIC52BELRRT CHATELET2:12:332:12:339:17 6.47888BELGRADE
189.1042LATTE CHRISTIAN56BELJE COU2:13:422:13:429:21 6.42893FROICHAPELLE
190.839POUCET BENOIT54BELJACO2:14:112:14:119:23 6.39896SELOIGNES
191.6492MICHEL SERGE55BELLES FORGES D'ANLIER2:14:122:14:129:24 6.39899X
DNF: abandon; DSQ: disqualifié; Vitesse en km/h
Page: [1]